sensor_id;sensor_type;location;lat;lon;timestamp;P1;durP1;ratioP1;P2;durP2;ratioP2
22268;SDS011;11303;50.772;19.670;2023-01-30T00:01:30;63.65;;;28.60;;
22268;SDS011;11303;50.772;19.670;2023-01-30T00:03:33;54.83;;;26.27;;
22268;SDS011;11303;50.772;19.670;2023-01-30T00:05:34;60.00;;;26.98;;
22268;SDS011;11303;50.772;19.670;2023-01-30T00:07:36;53.58;;;26.58;;
22268;SDS011;11303;50.772;19.670;2023-01-30T00:09:37;64.97;;;30.80;;
22268;SDS011;11303;50.772;19.670;2023-01-30T00:11:39;65.47;;;28.30;;
22268;SDS011;11303;50.772;19.670;2023-01-30T00:13:41;72.32;;;30.77;;
22268;SDS011;11303;50.772;19.670;2023-01-30T00:15:43;67.03;;;31.05;;
22268;SDS011;11303;50.772;19.670;2023-01-30T00:17:45;61.53;;;27.02;;
22268;SDS011;11303;50.772;19.670;2023-01-30T00:19:46;54.53;;;25.33;;
22268;SDS011;11303;50.772;19.670;2023-01-30T00:21:48;56.22;;;26.42;;
22268;SDS011;11303;50.772;19.670;2023-01-30T00:23:49;58.90;;;27.90;;
22268;SDS011;11303;50.772;19.670;2023-01-30T00:25:51;72.18;;;35.55;;
22268;SDS011;11303;50.772;19.670;2023-01-30T00:27:53;61.25;;;27.40;;
22268;SDS011;11303;50.772;19.670;2023-01-30T00:29:54;61.67;;;28.40;;
22268;SDS011;11303;50.772;19.670;2023-01-30T00:32:03;69.00;;;31.67;;
22268;SDS011;11303;50.772;19.670;2023-01-30T00:34:05;60.08;;;26.83;;
22268;SDS011;11303;50.772;19.670;2023-01-30T00:36:06;69.50;;;31.83;;
22268;SDS011;11303;50.772;19.670;2023-01-30T00:38:09;57.13;;;28.55;;
22268;SDS011;11303;50.772;19.670;2023-01-30T00:40:11;77.85;;;33.63;;
22268;SDS011;11303;50.772;19.670;2023-01-30T00:42:12;63.28;;;28.88;;
22268;SDS011;11303;50.772;19.670;2023-01-30T00:44:32;86.68;;;35.67;;
22268;SDS011;11303;50.772;19.670;2023-01-30T00:46:52;60.05;;;28.90;;
22268;SDS011;11303;50.772;19.670;2023-01-30T00:49:06;74.57;;;33.67;;
22268;SDS011;11303;50.772;19.670;2023-01-30T00:51:08;69.57;;;32.17;;
22268;SDS011;11303;50.772;19.670;2023-01-30T00:53:10;72.53;;;32.90;;
22268;SDS011;11303;50.772;19.670;2023-01-30T00:55:13;70.32;;;31.00;;
22268;SDS011;11303;50.772;19.670;2023-01-30T00:57:16;57.83;;;28.48;;
22268;SDS011;11303;50.772;19.670;2023-01-30T00:59:18;61.95;;;29.13;;
22268;SDS011;11303;50.772;19.670;2023-01-30T01:01:19;62.30;;;29.33;;
22268;SDS011;11303;50.772;19.670;2023-01-30T01:03:21;64.75;;;29.83;;
22268;SDS011;11303;50.772;19.670;2023-01-30T01:05:22;58.45;;;28.85;;
22268;SDS011;11303;50.772;19.670;2023-01-30T01:07:24;59.35;;;30.20;;
22268;SDS011;11303;50.772;19.670;2023-01-30T01:09:26;55.50;;;27.13;;
22268;SDS011;11303;50.772;19.670;2023-01-30T01:11:27;58.10;;;28.55;;
22268;SDS011;11303;50.772;19.670;2023-01-30T01:13:29;55.55;;;29.30;;
22268;SDS011;11303;50.772;19.670;2023-01-30T01:15:30;60.88;;;27.85;;
22268;SDS011;11303;50.772;19.670;2023-01-30T01:17:32;54.85;;;26.83;;
22268;SDS011;11303;50.772;19.670;2023-01-30T01:19:34;59.53;;;28.95;;
22268;SDS011;11303;50.772;19.670;2023-01-30T01:21:35;53.20;;;25.70;;
22268;SDS011;11303;50.772;19.670;2023-01-30T01:23:37;52.83;;;26.52;;
22268;SDS011;11303;50.772;19.670;2023-01-30T01:25:39;60.67;;;28.38;;
22268;SDS011;11303;50.772;19.670;2023-01-30T01:27:40;57.88;;;27.00;;
22268;SDS011;11303;50.772;19.670;2023-01-30T01:29:42;60.17;;;28.40;;
22268;SDS011;11303;50.772;19.670;2023-01-30T01:31:44;55.70;;;27.15;;
22268;SDS011;11303;50.772;19.670;2023-01-30T01:33:46;53.20;;;27.73;;
22268;SDS011;11303;50.772;19.670;2023-01-30T01:35:47;54.55;;;26.70;;
22268;SDS011;11303;50.772;19.670;2023-01-30T01:37:51;59.15;;;31.13;;
22268;SDS011;11303;50.772;19.670;2023-01-30T01:39:54;62.38;;;29.85;;
22268;SDS011;11303;50.772;19.670;2023-01-30T01:42:14;65.57;;;28.80;;
22268;SDS011;11303;50.772;19.670;2023-01-30T01:44:16;59.00;;;29.13;;
22268;SDS011;11303;50.772;19.670;2023-01-30T01:46:21;56.05;;;27.20;;
22268;SDS011;11303;50.772;19.670;2023-01-30T01:48:33;61.58;;;28.63;;
22268;SDS011;11303;50.772;19.670;2023-01-30T01:50:48;57.80;;;28.98;;
22268;SDS011;11303;50.772;19.670;2023-01-30T01:52:53;56.90;;;26.58;;
22268;SDS011;11303;50.772;19.670;2023-01-30T01:54:58;55.55;;;26.48;;
22268;SDS011;11303;50.772;19.670;2023-01-30T01:57:06;56.70;;;26.75;;
22268;SDS011;11303;50.772;19.670;2023-01-30T01:59:36;57.97;;;27.05;;
22268;SDS011;11303;50.772;19.670;2023-01-30T02:01:40;51.67;;;25.38;;
22268;SDS011;11303;50.772;19.670;2023-01-30T02:03:44;64.50;;;29.83;;
22268;SDS011;11303;50.772;19.670;2023-01-30T02:05:49;56.60;;;27.40;;
22268;SDS011;11303;50.772;19.670;2023-01-30T02:08:03;59.58;;;26.23;;
22268;SDS011;11303;50.772;19.670;2023-01-30T02:10:09;52.05;;;25.02;;
22268;SDS011;11303;50.772;19.670;2023-01-30T02:12:15;54.22;;;27.02;;
22268;SDS011;11303;50.772;19.670;2023-01-30T02:14:17;53.50;;;24.40;;
22268;SDS011;11303;50.772;19.670;2023-01-30T02:16:21;51.20;;;23.98;;
22268;SDS011;11303;50.772;19.670;2023-01-30T02:18:22;50.47;;;22.10;;
22268;SDS011;11303;50.772;19.670;2023-01-30T02:23:01;44.30;;;22.55;;
22268;SDS011;11303;50.772;19.670;2023-01-30T02:36:24;53.92;;;23.98;;
22268;SDS011;11303;50.772;19.670;2023-01-30T02:38:43;53.78;;;24.95;;
22268;SDS011;11303;50.772;19.670;2023-01-30T02:43:45;49.28;;;23.10;;
22268;SDS011;11303;50.772;19.670;2023-01-30T02:46:09;59.72;;;25.90;;
22268;SDS011;11303;50.772;19.670;2023-01-30T02:48:16;60.20;;;24.98;;
22268;SDS011;11303;50.772;19.670;2023-01-30T02:50:46;85.90;;;31.65;;
22268;SDS011;11303;50.772;19.670;2023-01-30T02:52:54;91.32;;;36.58;;
22268;SDS011;11303;50.772;19.670;2023-01-30T02:54:56;77.32;;;31.67;;
22268;SDS011;11303;50.772;19.670;2023-01-30T02:56:58;120.80;;;49.13;;
22268;SDS011;11303;50.772;19.670;2023-01-30T02:59:01;110.85;;;42.30;;
22268;SDS011;11303;50.772;19.670;2023-01-30T03:12:36;37.97;;;18.45;;
22268;SDS011;11303;50.772;19.670;2023-01-30T03:14:50;39.03;;;18.05;;
22268;SDS011;11303;50.772;19.670;2023-01-30T03:16:56;34.00;;;15.80;;
22268;SDS011;11303;50.772;19.670;2023-01-30T03:19:00;34.47;;;17.40;;
22268;SDS011;11303;50.772;19.670;2023-01-30T03:21:04;34.70;;;16.20;;
22268;SDS011;11303;50.772;19.670;2023-01-30T03:23:07;32.10;;;15.45;;
22268;SDS011;11303;50.772;19.670;2023-01-30T03:25:10;28.75;;;15.48;;
22268;SDS011;11303;50.772;19.670;2023-01-30T03:27:16;32.60;;;14.88;;
22268;SDS011;11303;50.772;19.670;2023-01-30T03:29:19;29.48;;;14.38;;
22268;SDS011;11303;50.772;19.670;2023-01-30T03:31:21;29.17;;;13.32;;
22268;SDS011;11303;50.772;19.670;2023-01-30T03:33:23;28.95;;;14.18;;
22268;SDS011;11303;50.772;19.670;2023-01-30T03:35:24;29.00;;;15.10;;
22268;SDS011;11303;50.772;19.670;2023-01-30T03:37:26;30.00;;;15.15;;
22268;SDS011;11303;50.772;19.670;2023-01-30T03:39:27;27.83;;;15.13;;
22268;SDS011;11303;50.772;19.670;2023-01-30T03:41:29;29.02;;;15.35;;
22268;SDS011;11303;50.772;19.670;2023-01-30T03:43:31;24.58;;;13.68;;
22268;SDS011;11303;50.772;19.670;2023-01-30T03:45:32;30.33;;;14.18;;
22268;SDS011;11303;50.772;19.670;2023-01-30T03:47:34;28.50;;;14.35;;
22268;SDS011;11303;50.772;19.670;2023-01-30T03:49:36;29.25;;;14.02;;
22268;SDS011;11303;50.772;19.670;2023-01-30T03:51:37;26.50;;;14.30;;
22268;SDS011;11303;50.772;19.670;2023-01-30T03:53:39;25.80;;;13.30;;
22268;SDS011;11303;50.772;19.670;2023-01-30T03:55:40;30.65;;;14.60;;
22268;SDS011;11303;50.772;19.670;2023-01-30T03:57:44;28.25;;;14.93;;
22268;SDS011;11303;50.772;19.670;2023-01-30T03:59:46;25.23;;;14.95;;
22268;SDS011;11303;50.772;19.670;2023-01-30T04:01:47;24.67;;;13.75;;
22268;SDS011;11303;50.772;19.670;2023-01-30T04:03:49;27.45;;;14.55;;
22268;SDS011;11303;50.772;19.670;2023-01-30T04:05:51;29.20;;;14.60;;
22268;SDS011;11303;50.772;19.670;2023-01-30T04:07:55;25.60;;;13.35;;
22268;SDS011;11303;50.772;19.670;2023-01-30T04:09:57;27.40;;;14.50;;
22268;SDS011;11303;50.772;19.670;2023-01-30T04:11:59;29.92;;;14.68;;
22268;SDS011;11303;50.772;19.670;2023-01-30T04:14:00;27.38;;;13.57;;
22268;SDS011;11303;50.772;19.670;2023-01-30T04:16:18;30.25;;;15.00;;
22268;SDS011;11303;50.772;19.670;2023-01-30T04:18:25;26.08;;;14.55;;
22268;SDS011;11303;50.772;19.670;2023-01-30T04:20:26;26.80;;;14.05;;
22268;SDS011;11303;50.772;19.670;2023-01-30T04:22:28;27.10;;;14.32;;
22268;SDS011;11303;50.772;19.670;2023-01-30T04:24:29;27.60;;;14.10;;
22268;SDS011;11303;50.772;19.670;2023-01-30T04:26:31;27.65;;;14.18;;
22268;SDS011;11303;50.772;19.670;2023-01-30T04:28:33;49.05;;;23.70;;
22268;SDS011;11303;50.772;19.670;2023-01-30T04:30:35;55.95;;;25.83;;
22268;SDS011;11303;50.772;19.670;2023-01-30T04:32:37;42.03;;;21.58;;
22268;SDS011;11303;50.772;19.670;2023-01-30T04:34:38;41.47;;;19.98;;
22268;SDS011;11303;50.772;19.670;2023-01-30T04:36:40;38.35;;;17.48;;
22268;SDS011;11303;50.772;19.670;2023-01-30T04:38:41;29.88;;;14.70;;
22268;SDS011;11303;50.772;19.670;2023-01-30T04:40:47;29.30;;;15.40;;
22268;SDS011;11303;50.772;19.670;2023-01-30T04:42:49;31.02;;;16.95;;
22268;SDS011;11303;50.772;19.670;2023-01-30T04:44:50;31.88;;;16.80;;
22268;SDS011;11303;50.772;19.670;2023-01-30T04:46:52;29.02;;;15.38;;
22268;SDS011;11303;50.772;19.670;2023-01-30T04:48:54;32.17;;;16.83;;
22268;SDS011;11303;50.772;19.670;2023-01-30T04:50:56;33.10;;;17.50;;
22268;SDS011;11303;50.772;19.670;2023-01-30T04:52:57;27.50;;;16.13;;
22268;SDS011;11303;50.772;19.670;2023-01-30T04:54:59;32.22;;;16.17;;
22268;SDS011;11303;50.772;19.670;2023-01-30T04:57:01;30.13;;;15.70;;
22268;SDS011;11303;50.772;19.670;2023-01-30T04:59:02;26.30;;;14.18;;
22268;SDS011;11303;50.772;19.670;2023-01-30T05:01:13;30.95;;;15.52;;
22268;SDS011;11303;50.772;19.670;2023-01-30T05:03:26;29.27;;;15.48;;
22268;SDS011;11303;50.772;19.670;2023-01-30T05:05:27;24.95;;;13.38;;
22268;SDS011;11303;50.772;19.670;2023-01-30T05:07:29;25.27;;;13.32;;
22268;SDS011;11303;50.772;19.670;2023-01-30T05:09:31;21.73;;;12.80;;
22268;SDS011;11303;50.772;19.670;2023-01-30T05:11:32;30.58;;;15.52;;
22268;SDS011;11303;50.772;19.670;2023-01-30T05:13:34;25.88;;;14.32;;
22268;SDS011;11303;50.772;19.670;2023-01-30T05:15:36;23.42;;;13.68;;
22268;SDS011;11303;50.772;19.670;2023-01-30T05:17:39;24.77;;;13.75;;
22268;SDS011;11303;50.772;19.670;2023-01-30T05:19:44;28.88;;;13.15;;
22268;SDS011;11303;50.772;19.670;2023-01-30T05:21:46;22.58;;;12.43;;
22268;SDS011;11303;50.772;19.670;2023-01-30T05:23:47;26.75;;;13.63;;
22268;SDS011;11303;50.772;19.670;2023-01-30T05:25:49;25.52;;;14.68;;
22268;SDS011;11303;50.772;19.670;2023-01-30T05:27:50;26.85;;;14.55;;
22268;SDS011;11303;50.772;19.670;2023-01-30T05:29:52;20.63;;;12.27;;
22268;SDS011;11303;50.772;19.670;2023-01-30T05:31:53;36.13;;;20.88;;
22268;SDS011;11303;50.772;19.670;2023-01-30T05:33:55;27.45;;;15.20;;
22268;SDS011;11303;50.772;19.670;2023-01-30T05:35:57;29.15;;;14.00;;
22268;SDS011;11303;50.772;19.670;2023-01-30T05:37:59;25.95;;;14.23;;
22268;SDS011;11303;50.772;19.670;2023-01-30T05:40:02;25.30;;;14.00;;
22268;SDS011;11303;50.772;19.670;2023-01-30T05:42:04;34.30;;;18.75;;
22268;SDS011;11303;50.772;19.670;2023-01-30T05:44:06;39.03;;;23.33;;
22268;SDS011;11303;50.772;19.670;2023-01-30T05:46:08;28.65;;;15.43;;
22268;SDS011;11303;50.772;19.670;2023-01-30T05:48:11;26.90;;;14.50;;
22268;SDS011;11303;50.772;19.670;2023-01-30T05:50:12;30.92;;;16.27;;
22268;SDS011;11303;50.772;19.670;2023-01-30T05:52:14;32.35;;;18.08;;
22268;SDS011;11303;50.772;19.670;2023-01-30T05:54:16;34.35;;;17.30;;
22268;SDS011;11303;50.772;19.670;2023-01-30T05:56:17;27.25;;;15.05;;
22268;SDS011;11303;50.772;19.670;2023-01-30T05:58:20;32.25;;;18.20;;
22268;SDS011;11303;50.772;19.670;2023-01-30T06:00:21;26.75;;;14.70;;
22268;SDS011;11303;50.772;19.670;2023-01-30T06:02:23;38.20;;;17.73;;
22268;SDS011;11303;50.772;19.670;2023-01-30T06:04:24;33.10;;;18.67;;
22268;SDS011;11303;50.772;19.670;2023-01-30T06:06:26;31.58;;;16.60;;
22268;SDS011;11303;50.772;19.670;2023-01-30T06:08:28;32.65;;;17.88;;
22268;SDS011;11303;50.772;19.670;2023-01-30T06:10:30;26.13;;;13.32;;
22268;SDS011;11303;50.772;19.670;2023-01-30T06:12:31;26.17;;;14.27;;
22268;SDS011;11303;50.772;19.670;2023-01-30T06:14:33;33.78;;;17.80;;
22268;SDS011;11303;50.772;19.670;2023-01-30T06:16:35;34.95;;;16.75;;
22268;SDS011;11303;50.772;19.670;2023-01-30T06:18:36;33.88;;;16.80;;
22268;SDS011;11303;50.772;19.670;2023-01-30T06:20:38;28.85;;;16.45;;
22268;SDS011;11303;50.772;19.670;2023-01-30T06:22:40;29.85;;;16.98;;
22268;SDS011;11303;50.772;19.670;2023-01-30T06:24:41;24.40;;;13.15;;
22268;SDS011;11303;50.772;19.670;2023-01-30T06:26:43;25.58;;;14.50;;
22268;SDS011;11303;50.772;19.670;2023-01-30T06:28:44;32.17;;;17.40;;
22268;SDS011;11303;50.772;19.670;2023-01-30T06:30:46;35.30;;;18.23;;
22268;SDS011;11303;50.772;19.670;2023-01-30T06:32:49;29.25;;;15.40;;
22268;SDS011;11303;50.772;19.670;2023-01-30T06:34:51;31.02;;;16.13;;
22268;SDS011;11303;50.772;19.670;2023-01-30T06:36:53;39.10;;;21.15;;
22268;SDS011;11303;50.772;19.670;2023-01-30T06:38:54;32.88;;;17.88;;
22268;SDS011;11303;50.772;19.670;2023-01-30T06:40:56;43.33;;;21.40;;
22268;SDS011;11303;50.772;19.670;2023-01-30T06:42:58;48.72;;;24.27;;
22268;SDS011;11303;50.772;19.670;2023-01-30T06:44:59;57.75;;;27.42;;
22268;SDS011;11303;50.772;19.670;2023-01-30T06:47:01;46.00;;;23.20;;
22268;SDS011;11303;50.772;19.670;2023-01-30T06:49:02;38.92;;;17.13;;
22268;SDS011;11303;50.772;19.670;2023-01-30T06:51:04;25.92;;;14.85;;
22268;SDS011;11303;50.772;19.670;2023-01-30T06:53:06;32.72;;;17.77;;
22268;SDS011;11303;50.772;19.670;2023-01-30T06:55:09;41.58;;;18.75;;
22268;SDS011;11303;50.772;19.670;2023-01-30T06:57:12;34.92;;;18.10;;
22268;SDS011;11303;50.772;19.670;2023-01-30T06:59:13;34.83;;;15.73;;
22268;SDS011;11303;50.772;19.670;2023-01-30T07:01:15;32.40;;;16.20;;
22268;SDS011;11303;50.772;19.670;2023-01-30T07:03:17;45.42;;;20.17;;
22268;SDS011;11303;50.772;19.670;2023-01-30T07:05:19;47.67;;;20.92;;
22268;SDS011;11303;50.772;19.670;2023-01-30T07:07:20;38.35;;;17.85;;
22268;SDS011;11303;50.772;19.670;2023-01-30T07:09:22;29.50;;;15.70;;
22268;SDS011;11303;50.772;19.670;2023-01-30T07:11:24;87.10;;;33.90;;
22268;SDS011;11303;50.772;19.670;2023-01-30T07:13:26;124.72;;;45.17;;
22268;SDS011;11303;50.772;19.670;2023-01-30T07:15:27;200.55;;;70.57;;
22268;SDS011;11303;50.772;19.670;2023-01-30T07:17:29;67.50;;;29.92;;
22268;SDS011;11303;50.772;19.670;2023-01-30T07:19:31;79.63;;;36.22;;
22268;SDS011;11303;50.772;19.670;2023-01-30T07:21:33;35.88;;;19.75;;
22268;SDS011;11303;50.772;19.670;2023-01-30T07:23:34;27.80;;;15.85;;
22268;SDS011;11303;50.772;19.670;2023-01-30T07:25:36;24.85;;;14.70;;
22268;SDS011;11303;50.772;19.670;2023-01-30T07:27:37;25.20;;;13.15;;
22268;SDS011;11303;50.772;19.670;2023-01-30T07:29:41;31.95;;;15.15;;
22268;SDS011;11303;50.772;19.670;2023-01-30T07:31:42;29.42;;;16.00;;
22268;SDS011;11303;50.772;19.670;2023-01-30T07:33:44;32.47;;;17.42;;
22268;SDS011;11303;50.772;19.670;2023-01-30T07:35:46;28.48;;;15.27;;
22268;SDS011;11303;50.772;19.670;2023-01-30T07:37:47;30.60;;;15.40;;
22268;SDS011;11303;50.772;19.670;2023-01-30T07:39:49;35.78;;;16.95;;
22268;SDS011;11303;50.772;19.670;2023-01-30T07:41:50;32.58;;;15.65;;
22268;SDS011;11303;50.772;19.670;2023-01-30T07:43:52;49.40;;;21.63;;
22268;SDS011;11303;50.772;19.670;2023-01-30T07:45:53;40.42;;;20.52;;
22268;SDS011;11303;50.772;19.670;2023-01-30T07:47:55;29.02;;;16.88;;
22268;SDS011;11303;50.772;19.670;2023-01-30T07:49:57;42.88;;;25.38;;
22268;SDS011;11303;50.772;19.670;2023-01-30T07:51:58;77.00;;;48.08;;
22268;SDS011;11303;50.772;19.670;2023-01-30T07:54:00;115.97;;;41.97;;
22268;SDS011;11303;50.772;19.670;2023-01-30T07:56:07;76.45;;;29.48;;
22268;SDS011;11303;50.772;19.670;2023-01-30T07:58:11;56.78;;;22.88;;
22268;SDS011;11303;50.772;19.670;2023-01-30T08:00:15;65.35;;;31.17;;
22268;SDS011;11303;50.772;19.670;2023-01-30T08:02:17;36.55;;;23.77;;
22268;SDS011;11303;50.772;19.670;2023-01-30T08:04:19;62.92;;;27.10;;
22268;SDS011;11303;50.772;19.670;2023-01-30T08:06:20;84.47;;;31.10;;
22268;SDS011;11303;50.772;19.670;2023-01-30T08:08:23;82.18;;;28.70;;
22268;SDS011;11303;50.772;19.670;2023-01-30T08:10:24;60.13;;;25.67;;
22268;SDS011;11303;50.772;19.670;2023-01-30T08:12:26;61.58;;;23.77;;
22268;SDS011;11303;50.772;19.670;2023-01-30T08:14:29;111.88;;;39.67;;
22268;SDS011;11303;50.772;19.670;2023-01-30T08:16:30;59.38;;;28.60;;
22268;SDS011;11303;50.772;19.670;2023-01-30T08:18:33;40.85;;;20.85;;
22268;SDS011;11303;50.772;19.670;2023-01-30T08:20:35;51.42;;;25.08;;
22268;SDS011;11303;50.772;19.670;2023-01-30T08:22:37;39.72;;;18.75;;
22268;SDS011;11303;50.772;19.670;2023-01-30T08:24:38;34.97;;;17.58;;
22268;SDS011;11303;50.772;19.670;2023-01-30T08:26:40;40.95;;;19.90;;
22268;SDS011;11303;50.772;19.670;2023-01-30T08:28:42;38.25;;;19.40;;
22268;SDS011;11303;50.772;19.670;2023-01-30T08:30:43;32.38;;;17.20;;
22268;SDS011;11303;50.772;19.670;2023-01-30T08:32:45;34.88;;;17.88;;
22268;SDS011;11303;50.772;19.670;2023-01-30T08:34:47;26.75;;;15.23;;
22268;SDS011;11303;50.772;19.670;2023-01-30T08:36:48;32.28;;;17.02;;
22268;SDS011;11303;50.772;19.670;2023-01-30T08:38:50;38.75;;;16.55;;
22268;SDS011;11303;50.772;19.670;2023-01-30T08:40:51;30.88;;;15.23;;
22268;SDS011;11303;50.772;19.670;2023-01-30T08:42:53;33.10;;;17.45;;
22268;SDS011;11303;50.772;19.670;2023-01-30T08:44:54;35.10;;;17.88;;
22268;SDS011;11303;50.772;19.670;2023-01-30T08:46:56;34.75;;;16.80;;
22268;SDS011;11303;50.772;19.670;2023-01-30T08:48:57;44.88;;;21.90;;
22268;SDS011;11303;50.772;19.670;2023-01-30T08:50:59;47.95;;;22.90;;
22268;SDS011;11303;50.772;19.670;2023-01-30T08:53:04;43.85;;;22.13;;
22268;SDS011;11303;50.772;19.670;2023-01-30T08:55:08;31.92;;;17.63;;
22268;SDS011;11303;50.772;19.670;2023-01-30T08:57:10;34.58;;;18.27;;
22268;SDS011;11303;50.772;19.670;2023-01-30T08:59:11;47.20;;;21.52;;
22268;SDS011;11303;50.772;19.670;2023-01-30T09:01:13;32.35;;;18.05;;
22268;SDS011;11303;50.772;19.670;2023-01-30T09:03:16;33.45;;;15.93;;
22268;SDS011;11303;50.772;19.670;2023-01-30T09:05:18;32.88;;;15.32;;
22268;SDS011;11303;50.772;19.670;2023-01-30T09:07:20;35.70;;;17.75;;
22268;SDS011;11303;50.772;19.670;2023-01-30T09:09:21;33.78;;;17.70;;
22268;SDS011;11303;50.772;19.670;2023-01-30T09:11:23;32.05;;;17.52;;
22268;SDS011;11303;50.772;19.670;2023-01-30T09:13:25;35.17;;;18.55;;
22268;SDS011;11303;50.772;19.670;2023-01-30T09:15:28;48.10;;;21.60;;
22268;SDS011;11303;50.772;19.670;2023-01-30T09:17:29;30.10;;;16.35;;
22268;SDS011;11303;50.772;19.670;2023-01-30T09:19:31;35.75;;;18.27;;
22268;SDS011;11303;50.772;19.670;2023-01-30T09:21:33;32.03;;;17.60;;
22268;SDS011;11303;50.772;19.670;2023-01-30T09:23:35;44.30;;;21.83;;
22268;SDS011;11303;50.772;19.670;2023-01-30T09:25:37;50.45;;;25.35;;
22268;SDS011;11303;50.772;19.670;2023-01-30T09:27:38;33.13;;;17.05;;
22268;SDS011;11303;50.772;19.670;2023-01-30T09:29:41;29.05;;;16.98;;
22268;SDS011;11303;50.772;19.670;2023-01-30T09:31:45;39.38;;;21.65;;
22268;SDS011;11303;50.772;19.670;2023-01-30T09:33:47;33.00;;;18.60;;
22268;SDS011;11303;50.772;19.670;2023-01-30T09:35:48;31.58;;;17.55;;
22268;SDS011;11303;50.772;19.670;2023-01-30T09:37:51;29.50;;;16.60;;
22268;SDS011;11303;50.772;19.670;2023-01-30T09:39:53;36.35;;;19.02;;
22268;SDS011;11303;50.772;19.670;2023-01-30T09:51:47;35.05;;;17.50;;
22268;SDS011;11303;50.772;19.670;2023-01-30T09:56:31;48.95;;;21.42;;
22268;SDS011;11303;50.772;19.670;2023-01-30T10:00:53;123.38;;;52.05;;
22268;SDS011;11303;50.772;19.670;2023-01-30T10:05:09;54.95;;;24.92;;
22268;SDS011;11303;50.772;19.670;2023-01-30T10:07:17;49.97;;;22.08;;
22268;SDS011;11303;50.772;19.670;2023-01-30T10:09:32;47.67;;;23.55;;
22268;SDS011;11303;50.772;19.670;2023-01-30T10:11:55;60.90;;;26.38;;
22268;SDS011;11303;50.772;19.670;2023-01-30T10:23:24;88.38;;;45.67;;
22268;SDS011;11303;50.772;19.670;2023-01-30T10:25:47;57.05;;;37.70;;
22268;SDS011;11303;50.772;19.670;2023-01-30T10:27:53;53.67;;;25.65;;
22268;SDS011;11303;50.772;19.670;2023-01-30T10:30:00;47.95;;;23.83;;
22268;SDS011;11303;50.772;19.670;2023-01-30T10:32:14;55.63;;;25.95;;
22268;SDS011;11303;50.772;19.670;2023-01-30T10:34:21;56.80;;;24.52;;
22268;SDS011;11303;50.772;19.670;2023-01-30T10:36:57;85.28;;;34.92;;
22268;SDS011;11303;50.772;19.670;2023-01-30T10:41:44;97.10;;;38.13;;
22268;SDS011;11303;50.772;19.670;2023-01-30T10:48:54;83.63;;;35.03;;
22268;SDS011;11303;50.772;19.670;2023-01-30T10:51:02;86.20;;;31.95;;
22268;SDS011;11303;50.772;19.670;2023-01-30T11:00:10;73.10;;;28.65;;
22268;SDS011;11303;50.772;19.670;2023-01-30T11:06:35;39.05;;;21.95;;
22268;SDS011;11303;50.772;19.670;2023-01-30T11:08:37;64.53;;;30.08;;
22268;SDS011;11303;50.772;19.670;2023-01-30T11:10:38;71.95;;;31.63;;
22268;SDS011;11303;50.772;19.670;2023-01-30T11:12:40;42.22;;;22.40;;
22268;SDS011;11303;50.772;19.670;2023-01-30T11:15:00;55.42;;;26.95;;
22268;SDS011;11303;50.772;19.670;2023-01-30T11:17:04;65.55;;;29.98;;
22268;SDS011;11303;50.772;19.670;2023-01-30T11:19:06;58.95;;;27.63;;
22268;SDS011;11303;50.772;19.670;2023-01-30T11:21:27;47.40;;;24.08;;
22268;SDS011;11303;50.772;19.670;2023-01-30T11:23:44;49.92;;;24.95;;
22268;SDS011;11303;50.772;19.670;2023-01-30T11:25:47;45.65;;;23.92;;
22268;SDS011;11303;50.772;19.670;2023-01-30T11:28:01;53.58;;;24.20;;
22268;SDS011;11303;50.772;19.670;2023-01-30T11:30:15;52.40;;;22.30;;
22268;SDS011;11303;50.772;19.670;2023-01-30T11:32:28;47.95;;;23.73;;
22268;SDS011;11303;50.772;19.670;2023-01-30T11:34:30;37.75;;;20.83;;
22268;SDS011;11303;50.772;19.670;2023-01-30T11:36:32;42.10;;;22.17;;
22268;SDS011;11303;50.772;19.670;2023-01-30T11:38:36;37.35;;;21.00;;
22268;SDS011;11303;50.772;19.670;2023-01-30T11:41:17;39.40;;;21.25;;
22268;SDS011;11303;50.772;19.670;2023-01-30T11:43:21;39.50;;;21.42;;
22268;SDS011;11303;50.772;19.670;2023-01-30T11:45:25;42.53;;;21.42;;
22268;SDS011;11303;50.772;19.670;2023-01-30T11:47:30;42.95;;;22.58;;
22268;SDS011;11303;50.772;19.670;2023-01-30T11:49:35;38.15;;;20.42;;
22268;SDS011;11303;50.772;19.670;2023-01-30T11:51:57;33.42;;;18.13;;
22268;SDS011;11303;50.772;19.670;2023-01-30T11:54:02;37.78;;;20.50;;
22268;SDS011;11303;50.772;19.670;2023-01-30T11:56:12;39.08;;;22.17;;
22268;SDS011;11303;50.772;19.670;2023-01-30T11:58:17;33.60;;;18.60;;
22268;SDS011;11303;50.772;19.670;2023-01-30T12:00:20;40.40;;;20.42;;
22268;SDS011;11303;50.772;19.670;2023-01-30T12:04:29;49.20;;;23.70;;
22268;SDS011;11303;50.772;19.670;2023-01-30T12:06:31;41.90;;;22.75;;
22268;SDS011;11303;50.772;19.670;2023-01-30T12:08:38;47.28;;;24.42;;
22268;SDS011;11303;50.772;19.670;2023-01-30T12:10:43;45.35;;;24.45;;
22268;SDS011;11303;50.772;19.670;2023-01-30T12:12:48;45.95;;;24.35;;
22268;SDS011;11303;50.772;19.670;2023-01-30T12:17:21;42.42;;;21.10;;
22268;SDS011;11303;50.772;19.670;2023-01-30T12:22:07;36.97;;;20.65;;
22268;SDS011;11303;50.772;19.670;2023-01-30T12:26:56;49.17;;;22.88;;
22268;SDS011;11303;50.772;19.670;2023-01-30T12:29:17;42.97;;;21.65;;
22268;SDS011;11303;50.772;19.670;2023-01-30T12:31:26;45.78;;;23.80;;
22268;SDS011;11303;50.772;19.670;2023-01-30T12:33:36;45.78;;;24.90;;
22268;SDS011;11303;50.772;19.670;2023-01-30T12:38:10;72.28;;;37.40;;
22268;SDS011;11303;50.772;19.670;2023-01-30T12:45:13;64.95;;;32.72;;
22268;SDS011;11303;50.772;19.670;2023-01-30T12:51:58;53.17;;;31.83;;
22268;SDS011;11303;50.772;19.670;2023-01-30T12:54:14;45.03;;;23.90;;
22268;SDS011;11303;50.772;19.670;2023-01-30T12:56:31;49.08;;;25.33;;
22268;SDS011;11303;50.772;19.670;2023-01-30T13:01:10;38.05;;;18.70;;
22268;SDS011;11303;50.772;19.670;2023-01-30T13:03:29;84.72;;;40.10;;
22268;SDS011;11303;50.772;19.670;2023-01-30T13:05:42;96.10;;;48.30;;
22268;SDS011;11303;50.772;19.670;2023-01-30T13:07:58;65.47;;;33.65;;
22268;SDS011;11303;50.772;19.670;2023-01-30T13:10:23;51.38;;;25.45;;
22268;SDS011;11303;50.772;19.670;2023-01-30T13:14:56;55.83;;;33.00;;
22268;SDS011;11303;50.772;19.670;2023-01-30T13:17:19;64.13;;;31.25;;
22268;SDS011;11303;50.772;19.670;2023-01-30T13:19:58;74.13;;;31.35;;
22268;SDS011;11303;50.772;19.670;2023-01-30T13:26:42;73.13;;;35.65;;
22268;SDS011;11303;50.772;19.670;2023-01-30T13:28:50;48.95;;;26.35;;
22268;SDS011;11303;50.772;19.670;2023-01-30T13:30:56;46.30;;;25.52;;
22268;SDS011;11303;50.772;19.670;2023-01-30T13:33:03;99.20;;;42.90;;
22268;SDS011;11303;50.772;19.670;2023-01-30T13:35:16;74.75;;;31.70;;
22268;SDS011;11303;50.772;19.670;2023-01-30T13:37:21;55.13;;;26.42;;
22268;SDS011;11303;50.772;19.670;2023-01-30T13:39:29;62.85;;;29.45;;
22268;SDS011;11303;50.772;19.670;2023-01-30T13:41:34;41.33;;;22.45;;
22268;SDS011;11303;50.772;19.670;2023-01-30T13:43:39;58.38;;;26.13;;